Авиационная погода в Самсуне

Регион: 
Погода METAR: 
LTFH 172150Z 20002KT 6000 FEW016 SCT030 16/14 Q1016 NOSIG
Время наблюдения
2021-06-17T21:50:00Z
Температура C
16.0
Точка росы
14.0
Направление ветра
200
Скорость ветра (узлы)
2
Метео видимость
3.73
Явления погоды
Условия полета
MVFR